createdAt,value
2017-11-04T00:01:02.590Z,28.65
2017-11-04T00:03:29.257Z,34.17
2017-11-04T00:05:55.954Z,35.25
2017-11-04T00:08:22.698Z,30.65
2017-11-04T00:10:49.380Z,35.47
2017-11-04T00:13:15.982Z,33.13
2017-11-04T00:15:42.613Z,30.40
2017-11-04T00:18:09.299Z,29.50
2017-11-04T00:20:35.905Z,26.62
2017-11-04T00:23:02.633Z,28.58
2017-11-04T00:25:29.317Z,29.27
2017-11-04T00:27:55.922Z,26.95
2017-11-04T00:30:22.549Z,30.40
2017-11-04T00:32:49.157Z,36.90
2017-11-04T00:35:15.762Z,31.60
2017-11-04T00:37:42.383Z,33.65
2017-11-04T00:40:09.010Z,30.60
2017-11-04T00:42:35.625Z,32.22
2017-11-04T00:45:02.248Z,36.03
2017-11-04T00:47:28.922Z,36.13
2017-11-04T00:49:55.533Z,31.83
2017-11-04T00:52:22.213Z,34.05
2017-11-04T00:54:48.834Z,33.33
2017-11-04T00:57:15.439Z,30.58
2017-11-04T00:59:42.062Z,30.12
2017-11-04T01:02:08.674Z,28.58
2017-11-04T01:04:35.302Z,32.17
2017-11-04T01:07:01.910Z,37.72
2017-11-04T01:09:28.530Z,42.22
2017-11-04T01:11:55.154Z,32.92
2017-11-04T01:14:21.762Z,34.25
2017-11-04T01:16:48.385Z,38.17
2017-11-04T01:19:15.017Z,38.33
2017-11-04T01:21:41.621Z,50.42
2017-11-04T01:24:08.240Z,39.85
2017-11-04T01:26:34.864Z,39.80
2017-11-04T01:29:01.582Z,45.42
2017-11-04T01:31:28.215Z,41.65
2017-11-04T01:33:54.824Z,46.42
2017-11-04T01:36:21.498Z,42.20
2017-11-04T01:38:48.122Z,41.13
2017-11-04T01:41:14.733Z,56.67
2017-11-04T01:43:41.426Z,35.03
2017-11-04T01:46:08.045Z,52.47
2017-11-04T01:48:34.255Z,39.25
2017-11-04T01:51:00.881Z,41.42
2017-11-04T01:53:27.254Z,32.10
2017-11-04T01:55:53.857Z,31.25
2017-11-04T01:58:20.513Z,29.75
2017-11-04T02:00:47.109Z,36.10
2017-11-04T02:03:13.722Z,31.35
2017-11-04T02:05:40.457Z,34.03
2017-11-04T02:08:07.064Z,51.70
2017-11-04T02:10:33.682Z,32.47
2017-11-04T02:13:00.301Z,40.30
2017-11-04T02:15:26.949Z,37.67
2017-11-04T02:17:53.574Z,32.05
2017-11-04T02:20:20.187Z,32.90
2017-11-04T02:22:46.821Z,30.05
2017-11-04T02:25:13.447Z,31.12
2017-11-04T02:27:40.062Z,26.80
2017-11-04T02:30:06.671Z,29.30
2017-11-04T02:32:33.293Z,33.28
2017-11-04T02:34:59.903Z,38.57
2017-11-04T02:37:26.570Z,27.35
2017-11-04T02:39:53.198Z,27.48
2017-11-04T02:42:19.818Z,31.95
2017-11-04T02:44:46.477Z,29.02
2017-11-04T02:47:13.085Z,46.00
2017-11-04T02:49:39.695Z,38.05
2017-11-04T02:52:06.319Z,72.35
2017-11-04T02:54:32.930Z,37.90
2017-11-04T02:56:59.570Z,29.42
2017-11-04T02:59:26.194Z,35.38
2017-11-04T03:01:52.805Z,36.00
2017-11-04T03:04:19.482Z,36.72
2017-11-04T03:06:46.107Z,33.10
2017-11-04T03:09:12.712Z,33.45
2017-11-04T03:11:39.322Z,27.58
2017-11-04T03:14:05.945Z,27.55
2017-11-04T03:16:32.549Z,33.55
2017-11-04T03:18:59.218Z,49.35
2017-11-04T03:21:25.842Z,43.28
2017-11-04T03:23:52.449Z,29.48
2017-11-04T03:26:19.122Z,28.33
2017-11-04T03:28:45.733Z,28.25
2017-11-04T03:31:12.408Z,36.25
2017-11-04T03:33:39.026Z,37.80
2017-11-04T03:36:05.687Z,29.95
2017-11-04T03:38:32.310Z,36.55
2017-11-04T03:40:58.966Z,34.95
2017-11-04T03:43:25.610Z,57.85
2017-11-04T03:45:52.247Z,33.75
2017-11-04T03:48:18.854Z,35.88
2017-11-04T03:50:45.521Z,31.52
2017-11-04T03:53:12.146Z,35.22
2017-11-04T03:55:38.763Z,30.00
2017-11-04T03:58:05.369Z,32.63
2017-11-04T04:00:32.013Z,45.70
2017-11-04T04:02:58.619Z,40.80
2017-11-04T04:05:25.233Z,40.33
2017-11-04T04:07:51.894Z,64.25
2017-11-04T04:10:18.533Z,48.75
2017-11-04T04:12:45.169Z,45.80
2017-11-04T04:15:11.819Z,49.95
2017-11-04T04:17:38.428Z,69.70
2017-11-04T04:20:05.033Z,46.55
2017-11-04T04:22:31.657Z,77.78
2017-11-04T04:24:58.312Z,82.85
2017-11-04T04:27:24.934Z,49.50
2017-11-04T04:29:51.548Z,46.67
2017-11-04T04:32:18.194Z,50.33
2017-11-04T04:34:44.826Z,68.12
2017-11-04T04:37:11.430Z,48.80
2017-11-04T04:39:38.039Z,51.58
2017-11-04T04:42:04.666Z,45.72
2017-11-04T04:44:31.274Z,47.97
2017-11-04T04:46:57.899Z,33.83
2017-11-04T04:49:24.515Z,36.55
2017-11-04T04:51:51.144Z,40.58
2017-11-04T04:54:17.749Z,36.15
2017-11-04T04:56:44.361Z,35.72
2017-11-04T04:59:10.989Z,36.05
2017-11-04T05:01:37.598Z,28.17
2017-11-04T05:04:04.290Z,34.17
2017-11-04T05:06:31.018Z,30.73
2017-11-04T05:08:57.626Z,33.20
2017-11-04T05:11:24.241Z,34.17
2017-11-04T05:13:50.858Z,41.58
2017-11-04T05:16:17.466Z,38.88
2017-11-04T05:18:44.078Z,39.25
2017-11-04T05:21:10.758Z,36.08
2017-11-04T05:23:37.398Z,37.03
2017-11-04T05:26:04.009Z,34.13
2017-11-04T05:28:30.646Z,37.95
2017-11-04T05:30:57.274Z,39.03
2017-11-04T05:33:23.893Z,41.65
2017-11-04T05:35:50.517Z,36.05
2017-11-04T05:38:17.130Z,39.28
2017-11-04T05:40:43.733Z,32.88
2017-11-04T05:43:10.373Z,34.20
2017-11-04T05:45:36.988Z,34.10
2017-11-04T05:48:03.596Z,40.45
2017-11-04T05:50:30.218Z,35.33
2017-11-04T05:52:56.849Z,33.83
2017-11-04T05:55:23.479Z,36.22
2017-11-04T05:57:50.090Z,32.85
2017-11-04T06:00:16.718Z,30.40
2017-11-04T06:02:43.383Z,33.13
2017-11-04T06:05:09.990Z,31.95
2017-11-04T06:07:36.602Z,31.00
2017-11-04T06:10:04.138Z,31.95
2017-11-04T06:12:30.741Z,30.88
2017-11-04T06:14:57.382Z,27.87
2017-11-04T06:17:23.988Z,27.48
2017-11-04T06:19:50.603Z,26.83
2017-11-04T06:22:17.234Z,26.85
2017-11-04T06:24:43.847Z,26.08
2017-11-04T06:27:10.525Z,34.28
2017-11-04T06:29:37.160Z,25.15
2017-11-04T06:32:03.766Z,28.00
2017-11-04T06:34:30.384Z,28.80
2017-11-04T06:36:57.010Z,26.17
2017-11-04T06:39:23.617Z,29.17
2017-11-04T06:41:50.261Z,28.48
2017-11-04T06:44:16.882Z,29.25
2017-11-04T06:46:43.542Z,27.33
2017-11-04T06:49:10.154Z,31.37
2017-11-04T06:51:36.781Z,26.62
2017-11-04T06:54:03.457Z,34.13
2017-11-04T06:56:30.066Z,28.20
2017-11-04T06:58:56.695Z,32.92
2017-11-04T07:01:23.302Z,30.80
2017-11-04T07:03:49.906Z,30.80
2017-11-04T07:06:16.542Z,29.10
2017-11-04T07:08:43.155Z,28.83
2017-11-04T07:11:09.770Z,33.75
2017-11-04T07:13:36.394Z,29.92
2017-11-04T07:16:02.997Z,25.17
2017-11-04T07:18:29.609Z,26.98
2017-11-04T07:20:56.237Z,27.10
2017-11-04T07:23:22.852Z,32.90
2017-11-04T07:25:49.469Z,29.95
2017-11-04T07:28:16.089Z,33.28
2017-11-04T07:30:42.705Z,37.15
2017-11-04T07:33:09.319Z,26.12
2017-11-04T07:35:35.946Z,30.15
2017-11-04T07:38:02.650Z,32.28
2017-11-04T07:40:29.265Z,27.92
2017-11-04T07:42:55.930Z,30.83
2017-11-04T07:45:22.546Z,32.97
2017-11-04T07:47:49.299Z,35.30
2017-11-04T07:50:15.926Z,29.60
2017-11-04T07:52:42.533Z,29.83
2017-11-04T07:55:09.237Z,30.88
2017-11-04T07:57:35.863Z,29.77
2017-11-04T08:00:02.502Z,30.62
2017-11-04T08:02:29.109Z,39.00
2017-11-04T08:04:55.729Z,32.70
2017-11-04T08:07:22.338Z,42.15
2017-11-04T08:09:48.961Z,36.25
2017-11-04T08:12:15.570Z,34.47
2017-11-04T08:14:42.178Z,31.90
2017-11-04T08:17:08.802Z,37.17
2017-11-04T08:19:35.417Z,34.00
2017-11-04T08:22:02.038Z,34.45
2017-11-04T08:24:28.662Z,37.40
2017-11-04T08:26:55.273Z,29.90
2017-11-04T08:29:21.886Z,31.15
2017-11-04T08:31:48.530Z,35.67
2017-11-04T08:34:15.147Z,44.35
2017-11-04T08:36:41.764Z,49.05
2017-11-04T08:39:08.417Z,34.85
2017-11-04T08:41:35.031Z,34.22
2017-11-04T08:44:01.651Z,30.02
2017-11-04T08:46:28.266Z,32.28
2017-11-04T08:48:54.878Z,41.70
2017-11-04T08:51:21.505Z,42.20
2017-11-04T08:53:48.117Z,36.15
2017-11-04T08:56:14.728Z,32.83
2017-11-04T08:58:41.345Z,36.70
2017-11-04T09:01:07.974Z,38.08
2017-11-04T09:03:34.587Z,34.30
2017-11-04T09:06:01.213Z,37.20
2017-11-04T09:08:27.936Z,39.33
2017-11-04T09:10:54.542Z,40.60
2017-11-04T09:13:21.170Z,42.60
2017-11-04T09:15:47.789Z,36.55
2017-11-04T09:18:14.460Z,36.05
2017-11-04T09:20:44.053Z,40.80
2017-11-04T09:23:10.675Z,40.12
2017-11-04T09:25:37.330Z,39.53
2017-11-04T09:28:04.075Z,40.33
2017-11-04T09:30:30.685Z,40.12
2017-11-04T09:32:57.306Z,40.33
2017-11-04T09:35:24.008Z,40.25
2017-11-04T09:37:50.618Z,40.60
2017-11-04T09:40:17.313Z,39.85
2017-11-04T09:42:43.930Z,42.92
2017-11-04T09:45:10.540Z,42.55
2017-11-04T09:47:37.150Z,42.30
2017-11-04T09:50:03.782Z,37.13
2017-11-04T09:52:30.465Z,42.28
2017-11-04T09:54:57.078Z,38.70
2017-11-04T09:57:23.698Z,40.75
2017-11-04T09:59:50.306Z,41.72
2017-11-04T10:02:16.929Z,39.90
2017-11-04T10:04:43.545Z,42.17
2017-11-04T10:07:10.154Z,44.75
2017-11-04T10:09:36.834Z,42.10
2017-11-04T10:12:03.450Z,42.25
2017-11-04T10:14:30.118Z,48.55
2017-11-04T10:16:56.726Z,52.75
2017-11-04T10:19:23.401Z,45.42
2017-11-04T10:21:50.027Z,48.90
2017-11-04T10:24:16.638Z,50.47
2017-11-04T10:26:43.304Z,51.75
2017-11-04T10:29:09.934Z,53.20
2017-11-04T10:31:36.542Z,52.95
2017-11-04T10:34:03.163Z,55.38
2017-11-04T10:36:29.789Z,49.35
2017-11-04T10:38:56.509Z,52.35
2017-11-04T10:41:23.114Z,63.60
2017-11-04T10:43:49.747Z,53.58
2017-11-04T10:46:16.353Z,55.80
2017-11-04T10:48:42.974Z,53.67
2017-11-04T10:51:09.600Z,49.78
2017-11-04T10:53:36.221Z,63.30
2017-11-04T10:56:02.834Z,55.28
2017-11-04T10:58:29.517Z,63.40
2017-11-04T11:00:56.122Z,51.60
2017-11-04T11:03:22.749Z,54.75
2017-11-04T11:05:49.378Z,61.58
2017-11-04T11:08:16.065Z,52.42
2017-11-04T11:10:42.677Z,61.08
2017-11-04T11:13:09.300Z,56.28
2017-11-04T11:15:35.910Z,58.40
2017-11-04T11:18:02.522Z,57.10
2017-11-04T11:20:29.150Z,72.07
2017-11-04T11:22:55.756Z,59.25
2017-11-04T11:25:22.367Z,58.40
2017-11-04T11:27:49.002Z,53.55
2017-11-04T11:30:15.611Z,67.37
2017-11-04T11:32:42.426Z,62.05
2017-11-04T11:35:09.350Z,51.83
2017-11-04T11:37:36.367Z,52.92
2017-11-04T11:40:03.094Z,50.65
2017-11-04T11:42:31.029Z,63.42
2017-11-04T11:44:57.662Z,58.92
2017-11-04T11:47:24.276Z,61.05
2017-11-04T11:49:50.960Z,47.00
2017-11-04T11:52:17.604Z,48.22
2017-11-04T11:54:44.304Z,49.85
2017-11-04T11:57:10.925Z,48.83
2017-11-04T11:59:37.560Z,51.28
2017-11-04T12:02:04.220Z,46.90
2017-11-04T12:04:31.827Z,56.70
2017-11-04T12:06:59.958Z,55.00
2017-11-04T12:09:26.661Z,51.90
2017-11-04T12:11:53.297Z,56.00
2017-11-04T12:14:20.138Z,49.05
2017-11-04T12:16:47.435Z,56.50
2017-11-04T12:19:14.077Z,53.13
2017-11-04T12:21:40.701Z,51.30
2017-11-04T12:24:07.306Z,60.15
2017-11-04T12:26:33.929Z,56.88
2017-11-04T12:29:00.546Z,54.50
2017-11-04T12:31:27.221Z,57.80
2017-11-04T12:33:53.866Z,52.33
2017-11-04T12:36:20.474Z,61.13
2017-11-04T12:38:47.078Z,55.03
2017-11-04T12:41:13.702Z,56.58
2017-11-04T12:43:40.315Z,52.60
2017-11-04T12:46:06.918Z,63.45
2017-11-04T12:48:33.553Z,52.85
2017-11-04T12:51:00.234Z,54.50
2017-11-04T12:53:26.844Z,57.85
2017-11-04T12:55:53.466Z,52.08
2017-11-04T12:58:20.082Z,60.67
2017-11-04T13:00:46.698Z,52.95
2017-11-04T13:03:13.326Z,56.50
2017-11-04T13:05:39.933Z,55.42
2017-11-04T13:08:06.543Z,60.55
2017-11-04T13:10:33.161Z,57.05
2017-11-04T13:12:59.773Z,54.95
2017-11-04T13:15:26.406Z,57.45
2017-11-04T13:17:53.013Z,52.97
2017-11-04T13:20:19.617Z,69.22
2017-11-04T13:22:46.248Z,58.83
2017-11-04T13:25:12.864Z,56.83
2017-11-04T13:27:39.495Z,54.25
2017-11-04T13:30:06.117Z,53.05
2017-11-04T13:32:32.732Z,56.20
2017-11-04T13:34:59.345Z,52.15
2017-11-04T13:37:25.979Z,59.20
2017-11-04T13:39:52.590Z,53.10
2017-11-04T13:42:19.250Z,57.17
2017-11-04T13:44:45.877Z,51.65
2017-11-04T13:47:12.491Z,48.42
2017-11-04T13:49:39.131Z,45.12
2017-11-04T13:52:05.755Z,49.47
2017-11-04T13:54:32.360Z,46.75
2017-11-04T13:56:58.961Z,52.20
2017-11-04T13:59:25.585Z,46.05
2017-11-04T14:01:52.253Z,47.40
2017-11-04T14:04:18.901Z,46.67
2017-11-04T14:06:45.531Z,48.42
2017-11-04T14:09:12.158Z,41.95
2017-11-04T14:11:38.814Z,44.65
2017-11-04T14:14:05.431Z,46.40
2017-11-04T14:16:32.050Z,41.83
2017-11-04T14:18:58.663Z,43.03
2017-11-04T14:21:25.272Z,40.22
2017-11-04T14:23:51.899Z,45.33
2017-11-04T14:26:18.506Z,39.75
2017-11-04T14:28:45.194Z,41.35
2017-11-04T14:31:11.926Z,41.92
2017-11-04T14:33:38.530Z,38.92
2017-11-04T14:36:05.146Z,41.37
2017-11-04T14:38:31.774Z,42.85
2017-11-04T14:40:58.485Z,47.65
2017-11-04T14:43:25.085Z,44.95
2017-11-04T14:45:51.710Z,42.20
2017-11-04T14:48:18.321Z,40.28
2017-11-04T14:50:44.941Z,44.40
2017-11-04T14:53:11.566Z,42.60
2017-11-04T14:55:38.178Z,44.05
2017-11-04T14:58:04.801Z,38.20
2017-11-04T15:00:31.480Z,42.15
2017-11-04T15:02:58.152Z,48.17
2017-11-04T15:05:24.782Z,42.00
2017-11-04T15:07:51.393Z,46.47
2017-11-04T15:10:18.008Z,41.30
2017-11-04T15:12:44.688Z,44.15
2017-11-04T15:15:11.298Z,44.22
2017-11-04T15:17:37.909Z,58.38
2017-11-04T15:20:04.534Z,45.22
2017-11-04T15:22:31.155Z,50.85
2017-11-04T15:24:57.828Z,43.85
2017-11-04T15:27:24.433Z,36.45
2017-11-04T15:29:51.048Z,48.55
2017-11-04T15:32:17.683Z,42.75
2017-11-04T15:34:44.316Z,39.78
2017-11-04T15:37:10.971Z,49.17
2017-11-04T15:39:37.607Z,46.67
2017-11-04T15:42:04.216Z,50.35
2017-11-04T15:44:30.905Z,71.20
2017-11-04T15:46:57.637Z,43.25
2017-11-04T15:49:24.278Z,47.75
2017-11-04T15:51:50.893Z,46.42
2017-11-04T15:54:17.517Z,50.97
2017-11-04T15:56:44.194Z,48.60
2017-11-04T15:59:10.825Z,46.78
2017-11-04T16:01:37.644Z,47.58
2017-11-04T16:04:04.991Z,50.15
2017-11-04T16:06:31.754Z,45.85
2017-11-04T16:08:58.483Z,46.22
2017-11-04T16:11:25.202Z,45.63
2017-11-04T16:13:52.245Z,43.38
2017-11-04T16:16:19.907Z,48.50
2017-11-04T16:18:47.468Z,42.95
2017-11-04T16:21:15.616Z,45.12
2017-11-04T16:23:43.224Z,44.58
2017-11-04T16:26:10.484Z,45.05
2017-11-04T16:28:38.012Z,47.42
2017-11-04T16:31:05.498Z,42.83
2017-11-04T16:33:33.756Z,41.88
2017-11-04T16:36:01.131Z,46.90
2017-11-04T16:38:28.266Z,48.92
2017-11-04T16:40:55.720Z,43.58
2017-11-04T16:43:22.974Z,47.78
2017-11-04T16:45:50.283Z,52.15
2017-11-04T16:48:17.561Z,48.78
2017-11-04T16:50:44.968Z,43.00
2017-11-04T16:53:13.231Z,40.47
2017-11-04T16:55:40.674Z,39.35
2017-11-04T16:58:08.876Z,41.17
2017-11-04T17:00:36.207Z,51.47
2017-11-04T17:03:02.866Z,43.30
2017-11-04T17:05:29.481Z,41.15
2017-11-04T17:07:56.297Z,37.83
2017-11-04T17:10:23.025Z,38.00
2017-11-04T17:12:49.666Z,42.00
2017-11-04T17:15:16.286Z,42.60
2017-11-04T17:17:42.897Z,41.45
2017-11-04T17:20:09.510Z,39.00
2017-11-04T17:22:36.138Z,38.10
2017-11-04T17:25:02.746Z,38.90
2017-11-04T17:27:29.367Z,36.38
2017-11-04T17:29:56.036Z,38.38
2017-11-04T17:32:22.646Z,42.17
2017-11-04T17:34:49.270Z,41.35
2017-11-04T17:37:15.954Z,38.80
2017-11-04T17:39:42.555Z,41.08
2017-11-04T17:42:09.234Z,40.40
2017-11-04T17:44:35.842Z,41.42
2017-11-04T17:47:02.459Z,38.35
2017-11-04T17:49:29.088Z,47.67
2017-11-04T17:51:55.698Z,43.65
2017-11-04T17:54:22.313Z,42.13
2017-11-04T17:56:48.938Z,37.40
2017-11-04T17:59:15.550Z,42.55
2017-11-04T18:01:42.167Z,42.10
2017-11-04T18:04:08.789Z,42.13
2017-11-04T18:06:35.401Z,39.90
2017-11-04T18:09:02.023Z,43.03
2017-11-04T18:11:28.645Z,42.72
2017-11-04T18:13:55.264Z,45.63
2017-11-04T18:16:22.017Z,51.00
2017-11-04T18:18:48.655Z,44.00
2017-11-04T18:21:15.260Z,43.47
2017-11-04T18:23:41.865Z,43.67
2017-11-04T18:26:08.535Z,52.00
2017-11-04T18:28:35.145Z,43.00
2017-11-04T18:31:01.765Z,43.17
2017-11-04T18:33:28.387Z,44.38
2017-11-04T18:35:55.087Z,46.40
2017-11-04T18:38:21.694Z,39.20
2017-11-04T18:40:48.370Z,46.10
2017-11-04T18:43:15.002Z,49.55
2017-11-04T18:45:41.618Z,37.35
2017-11-04T18:48:08.245Z,43.17
2017-11-04T18:50:34.854Z,50.50
2017-11-04T18:53:01.563Z,47.13
2017-11-04T18:55:28.202Z,42.67
2017-11-04T18:57:54.820Z,48.53
2017-11-04T19:00:21.457Z,47.22
2017-11-04T19:02:48.065Z,43.87
2017-11-04T19:05:14.765Z,43.45
2017-11-04T19:07:41.381Z,42.25
2017-11-04T19:10:08.002Z,41.35
2017-11-04T19:12:34.624Z,45.22
2017-11-04T19:15:01.253Z,43.28
2017-11-04T19:17:27.951Z,49.03
2017-11-04T19:19:54.556Z,42.33
2017-11-04T19:22:21.230Z,42.45
2017-11-04T19:24:47.845Z,42.88
2017-11-04T19:27:14.462Z,45.50
2017-11-04T19:29:41.090Z,47.83
2017-11-04T19:32:07.701Z,39.42
2017-11-04T19:34:34.313Z,44.88
2017-11-04T19:37:00.938Z,39.88
2017-11-04T19:39:27.608Z,48.58
2017-11-04T19:41:54.218Z,40.88
2017-11-04T19:44:20.840Z,47.70
2017-11-04T19:46:47.463Z,44.15
2017-11-04T19:49:14.158Z,49.70
2017-11-04T19:51:40.786Z,47.67
2017-11-04T19:54:07.459Z,51.15
2017-11-04T19:56:34.066Z,46.37
2017-11-04T19:59:00.695Z,44.78
2017-11-04T20:01:27.304Z,41.75
2017-11-04T20:03:53.911Z,41.42
2017-11-04T20:06:20.529Z,45.22
2017-11-04T20:08:47.170Z,44.28
2017-11-04T20:11:13.801Z,46.25
2017-11-04T20:13:40.415Z,42.45
2017-11-04T20:16:07.088Z,49.50
2017-11-04T20:18:33.726Z,44.78
2017-11-04T20:21:00.362Z,44.88
2017-11-04T20:23:26.985Z,46.17
2017-11-04T20:25:53.589Z,41.53
2017-11-04T20:28:20.209Z,41.45
2017-11-04T20:30:46.833Z,42.17
2017-11-04T20:33:13.457Z,45.15
2017-11-04T20:35:40.078Z,48.35
2017-11-04T20:38:06.732Z,49.97
2017-11-04T20:40:33.344Z,49.83
2017-11-04T20:43:00.012Z,46.25
2017-11-04T20:45:26.623Z,48.28
2017-11-04T20:47:53.290Z,41.88
2017-11-04T20:50:19.909Z,48.25
2017-11-04T20:52:46.516Z,46.78
2017-11-04T20:55:13.128Z,41.45
2017-11-04T20:57:39.754Z,49.38
2017-11-04T21:00:06.382Z,44.90
2017-11-04T21:02:32.992Z,46.33
2017-11-04T21:04:59.663Z,46.37
2017-11-04T21:07:26.266Z,44.33
2017-11-04T21:09:52.883Z,40.22
2017-11-04T21:12:19.558Z,45.80
2017-11-04T21:14:46.161Z,45.58
2017-11-04T21:17:12.771Z,47.08
2017-11-04T21:19:39.493Z,47.35
2017-11-04T21:22:06.102Z,50.17
2017-11-04T21:24:32.779Z,44.28
2017-11-04T21:26:59.420Z,41.90
2017-11-04T21:29:26.026Z,42.30
2017-11-04T21:31:52.650Z,44.78
2017-11-04T21:34:19.338Z,46.95
2017-11-04T21:36:45.979Z,42.17
2017-11-04T21:39:12.610Z,44.25
2017-11-04T21:41:39.217Z,45.10
2017-11-04T21:44:05.890Z,42.88
2017-11-04T21:46:32.525Z,38.40
2017-11-04T21:48:59.138Z,41.22
2017-11-04T21:51:25.771Z,43.35
2017-11-04T21:53:52.382Z,50.67
2017-11-04T21:56:18.998Z,40.28
2017-11-04T21:58:45.626Z,43.00
2017-11-04T22:01:12.262Z,45.97
2017-11-04T22:03:38.876Z,48.22
2017-11-04T22:06:05.494Z,41.60
2017-11-04T22:08:32.173Z,46.28
2017-11-04T22:10:58.809Z,44.65
2017-11-04T22:13:25.438Z,44.28
2017-11-04T22:15:52.042Z,46.17
2017-11-04T22:18:18.667Z,45.17
2017-11-04T22:20:45.270Z,41.33
2017-11-04T22:23:11.910Z,41.05
2017-11-04T22:25:38.529Z,42.88
2017-11-04T22:28:05.186Z,42.40
2017-11-04T22:30:31.794Z,38.10
2017-11-04T22:32:58.433Z,37.13
2017-11-04T22:35:25.055Z,41.58
2017-11-04T22:37:51.668Z,39.30
2017-11-04T22:40:18.298Z,38.80
2017-11-04T22:42:44.924Z,46.00
2017-11-04T22:45:11.537Z,41.40
2017-11-04T22:47:38.166Z,39.08
2017-11-04T22:50:04.779Z,38.60
2017-11-04T22:52:31.387Z,42.55
2017-11-04T22:54:58.117Z,40.25
2017-11-04T22:57:24.721Z,39.22
2017-11-04T22:59:51.348Z,47.03
2017-11-04T23:02:17.963Z,49.15
2017-11-04T23:04:44.565Z,45.35
2017-11-04T23:07:11.209Z,43.67
2017-11-04T23:09:37.807Z,44.33
2017-11-04T23:12:04.430Z,40.53
2017-11-04T23:14:31.037Z,41.65
2017-11-04T23:16:57.645Z,39.17
2017-11-04T23:19:24.274Z,43.47
2017-11-04T23:21:50.894Z,39.20
2017-11-04T23:24:17.594Z,46.17
2017-11-04T23:26:44.222Z,43.60
2017-11-04T23:29:10.840Z,41.00
2017-11-04T23:31:37.438Z,55.40
2017-11-04T23:34:04.133Z,40.67
2017-11-04T23:36:30.748Z,47.67
2017-11-04T23:38:57.455Z,43.22
2017-11-04T23:41:24.074Z,49.33
2017-11-04T23:43:50.678Z,36.63
2017-11-04T23:46:17.334Z,41.20
2017-11-04T23:48:43.957Z,40.22
2017-11-04T23:51:10.619Z,47.13
2017-11-04T23:53:37.229Z,43.97
2017-11-04T23:56:03.863Z,41.95
2017-11-04T23:58:30.479Z,39.95
